Terminal Aerodrome Forecast
Issued by NWS Cleveland, OH

Home | Current Version | Previous Version | Text Only | Print | Product List | Glossary On
Versions: 1 2 3 4 5 6 7 8 9 10 11 12 13 14 15 16 17 18 19 20 21 22 23 24 25 26 27 28 29 30 31 32
407
FTUS41 KCLE 230203 AAB
TAFCLE
TAF AMD
KCLE 230203Z 2302/2406 04008KT 6SM BR OVC006
      TEMPO 2302/2305 5SM BR SCT006 OVC020
     FM231200 15007KT 2SM -RA BR OVC005
     FM232000 24012KT 3SM BR OVC006=

USA.gov is the U.S. government's official web portal to all federal, state and local government web resources and services.